sensor_id;sensor_type;location;lat;lon;timestamp;P1;durP1;ratioP1;P2;durP2;ratioP2
55467;SDS011;41332;42.702;23.200;2022-09-02T00:00:42;13.95;;;11.70;;
55467;SDS011;41332;42.702;23.200;2022-09-02T00:03:09;16.25;;;11.73;;
55467;SDS011;41332;42.702;23.200;2022-09-02T00:05:35;14.07;;;11.77;;
55467;SDS011;41332;42.702;23.200;2022-09-02T00:08:01;13.85;;;12.45;;
55467;SDS011;41332;42.702;23.200;2022-09-02T00:10:27;14.75;;;12.43;;
55467;SDS011;41332;42.702;23.200;2022-09-02T00:12:53;14.52;;;12.70;;
55467;SDS011;41332;42.702;23.200;2022-09-02T00:15:19;19.83;;;12.83;;
55467;SDS011;41332;42.702;23.200;2022-09-02T00:17:44;18.63;;;13.20;;
55467;SDS011;41332;42.702;23.200;2022-09-02T00:20:10;24.60;;;13.10;;
55467;SDS011;41332;42.702;23.200;2022-09-02T00:22:35;18.05;;;12.77;;
55467;SDS011;41332;42.702;23.200;2022-09-02T00:25:01;16.88;;;11.70;;
55467;SDS011;41332;42.702;23.200;2022-09-02T00:27:26;14.68;;;12.90;;
55467;SDS011;41332;42.702;23.200;2022-09-02T00:29:52;16.05;;;12.85;;
55467;SDS011;41332;42.702;23.200;2022-09-02T00:32:17;19.63;;;14.05;;
55467;SDS011;41332;42.702;23.200;2022-09-02T00:34:43;14.77;;;12.40;;
55467;SDS011;41332;42.702;23.200;2022-09-02T00:37:09;19.77;;;13.38;;
55467;SDS011;41332;42.702;23.200;2022-09-02T00:39:34;20.17;;;13.90;;
55467;SDS011;41332;42.702;23.200;2022-09-02T00:41:59;17.08;;;14.70;;
55467;SDS011;41332;42.702;23.200;2022-09-02T00:44:25;15.73;;;13.25;;
55467;SDS011;41332;42.702;23.200;2022-09-02T00:46:51;16.10;;;12.20;;
55467;SDS011;41332;42.702;23.200;2022-09-02T00:49:24;16.50;;;12.15;;
55467;SDS011;41332;42.702;23.200;2022-09-02T00:51:53;12.20;;;10.88;;
55467;SDS011;41332;42.702;23.200;2022-09-02T00:54:23;13.85;;;11.40;;
55467;SDS011;41332;42.702;23.200;2022-09-02T00:56:51;14.15;;;9.88;;
55467;SDS011;41332;42.702;23.200;2022-09-02T00:59:19;11.18;;;9.63;;
55467;SDS011;41332;42.702;23.200;2022-09-02T01:02:15;12.23;;;10.00;;
55467;SDS011;41332;42.702;23.200;2022-09-02T01:04:41;10.30;;;8.02;;
55467;SDS011;41332;42.702;23.200;2022-09-02T01:07:10;10.75;;;9.52;;
55467;SDS011;41332;42.702;23.200;2022-09-02T01:09:37;10.70;;;8.57;;
55467;SDS011;41332;42.702;23.200;2022-09-02T01:12:03;11.07;;;8.20;;
55467;SDS011;41332;42.702;23.200;2022-09-02T01:14:29;8.98;;;8.07;;
55467;SDS011;41332;42.702;23.200;2022-09-02T01:16:56;8.60;;;6.97;;
55467;SDS011;41332;42.702;23.200;2022-09-02T01:22:21;11.45;;;7.95;;
55467;SDS011;41332;42.702;23.200;2022-09-02T01:24:51;10.60;;;7.82;;
55467;SDS011;41332;42.702;23.200;2022-09-02T01:27:18;8.50;;;7.35;;
55467;SDS011;41332;42.702;23.200;2022-09-02T01:29:48;10.95;;;7.10;;
55467;SDS011;41332;42.702;23.200;2022-09-02T01:32:16;10.27;;;7.38;;
55467;SDS011;41332;42.702;23.200;2022-09-02T01:34:42;8.88;;;6.95;;
55467;SDS011;41332;42.702;23.200;2022-09-02T01:37:07;7.55;;;6.85;;
55467;SDS011;41332;42.702;23.200;2022-09-02T01:39:33;10.30;;;7.15;;
55467;SDS011;41332;42.702;23.200;2022-09-02T01:41:58;8.63;;;7.53;;
55467;SDS011;41332;42.702;23.200;2022-09-02T01:44:25;12.03;;;7.17;;
55467;SDS011;41332;42.702;23.200;2022-09-02T01:46:51;7.27;;;6.57;;
55467;SDS011;41332;42.702;23.200;2022-09-02T01:49:17;10.43;;;7.72;;
55467;SDS011;41332;42.702;23.200;2022-09-02T01:51:43;7.35;;;6.35;;
55467;SDS011;41332;42.702;23.200;2022-09-02T01:54:09;10.82;;;7.53;;
55467;SDS011;41332;42.702;23.200;2022-09-02T01:56:34;7.72;;;6.72;;
55467;SDS011;41332;42.702;23.200;2022-09-02T01:59:00;7.78;;;6.97;;
55467;SDS011;41332;42.702;23.200;2022-09-02T02:01:26;11.65;;;6.63;;
55467;SDS011;41332;42.702;23.200;2022-09-02T02:03:52;9.02;;;7.50;;
55467;SDS011;41332;42.702;23.200;2022-09-02T02:06:18;7.25;;;6.50;;
55467;SDS011;41332;42.702;23.200;2022-09-02T02:08:43;6.00;;;5.40;;
55467;SDS011;41332;42.702;23.200;2022-09-02T02:11:09;5.88;;;5.13;;
55467;SDS011;41332;42.702;23.200;2022-09-02T02:13:35;5.28;;;4.80;;
55467;SDS011;41332;42.702;23.200;2022-09-02T02:16:01;4.93;;;4.53;;
55467;SDS011;41332;42.702;23.200;2022-09-02T02:18:26;4.82;;;4.25;;
55467;SDS011;41332;42.702;23.200;2022-09-02T02:20:52;4.45;;;4.05;;
55467;SDS011;41332;42.702;23.200;2022-09-02T02:23:17;7.75;;;4.78;;
55467;SDS011;41332;42.702;23.200;2022-09-02T02:25:43;5.63;;;5.13;;
55467;SDS011;41332;42.702;23.200;2022-09-02T02:28:09;5.20;;;4.80;;
55467;SDS011;41332;42.702;23.200;2022-09-02T02:30:34;5.05;;;4.60;;
55467;SDS011;41332;42.702;23.200;2022-09-02T02:33:00;5.03;;;4.53;;
55467;SDS011;41332;42.702;23.200;2022-09-02T02:35:26;6.82;;;5.10;;
55467;SDS011;41332;42.702;23.200;2022-09-02T02:37:52;5.45;;;4.97;;
55467;SDS011;41332;42.702;23.200;2022-09-02T02:40:19;7.17;;;5.23;;
55467;SDS011;41332;42.702;23.200;2022-09-02T02:42:47;6.57;;;6.03;;
55467;SDS011;41332;42.702;23.200;2022-09-02T02:45:14;5.10;;;4.70;;
55467;SDS011;41332;42.702;23.200;2022-09-02T02:47:40;9.70;;;7.18;;
55467;SDS011;41332;42.702;23.200;2022-09-02T02:50:10;8.73;;;5.95;;
55467;SDS011;41332;42.702;23.200;2022-09-02T02:52:38;6.22;;;5.32;;
55467;SDS011;41332;42.702;23.200;2022-09-02T02:57:32;8.82;;;5.38;;
55467;SDS011;41332;42.702;23.200;2022-09-02T03:00:00;6.03;;;5.40;;
55467;SDS011;41332;42.702;23.200;2022-09-02T03:02:30;7.03;;;6.32;;
55467;SDS011;41332;42.702;23.200;2022-09-02T03:04:57;7.55;;;6.65;;
55467;SDS011;41332;42.702;23.200;2022-09-02T03:07:22;5.97;;;5.38;;
55467;SDS011;41332;42.702;23.200;2022-09-02T03:09:47;6.97;;;6.30;;
55467;SDS011;41332;42.702;23.200;2022-09-02T03:12:13;7.47;;;5.70;;
55467;SDS011;41332;42.702;23.200;2022-09-02T03:14:40;7.10;;;5.65;;
55467;SDS011;41332;42.702;23.200;2022-09-02T03:17:06;5.75;;;5.25;;
55467;SDS011;41332;42.702;23.200;2022-09-02T03:19:31;5.95;;;5.30;;
55467;SDS011;41332;42.702;23.200;2022-09-02T03:21:57;7.07;;;5.00;;
55467;SDS011;41332;42.702;23.200;2022-09-02T03:24:22;6.43;;;4.90;;
55467;SDS011;41332;42.702;23.200;2022-09-02T03:26:47;4.65;;;4.20;;
55467;SDS011;41332;42.702;23.200;2022-09-02T03:29:13;5.00;;;4.53;;
55467;SDS011;41332;42.702;23.200;2022-09-02T03:31:38;5.18;;;4.72;;
55467;SDS011;41332;42.702;23.200;2022-09-02T03:34:04;5.30;;;4.70;;
55467;SDS011;41332;42.702;23.200;2022-09-02T03:36:31;6.28;;;4.82;;
55467;SDS011;41332;42.702;23.200;2022-09-02T03:38:58;6.10;;;4.70;;
55467;SDS011;41332;42.702;23.200;2022-09-02T03:41:24;6.03;;;5.53;;
55467;SDS011;41332;42.702;23.200;2022-09-02T03:43:49;7.82;;;6.18;;
55467;SDS011;41332;42.702;23.200;2022-09-02T03:46:15;5.70;;;4.82;;
55467;SDS011;41332;42.702;23.200;2022-09-02T03:48:41;5.15;;;4.70;;
55467;SDS011;41332;42.702;23.200;2022-09-02T03:51:08;4.90;;;4.43;;
55467;SDS011;41332;42.702;23.200;2022-09-02T03:53:33;6.80;;;4.72;;
55467;SDS011;41332;42.702;23.200;2022-09-02T03:56:03;6.00;;;5.03;;
55467;SDS011;41332;42.702;23.200;2022-09-02T03:58:31;5.88;;;5.00;;
55467;SDS011;41332;42.702;23.200;2022-09-02T04:00:56;7.00;;;5.03;;
55467;SDS011;41332;42.702;23.200;2022-09-02T04:03:22;6.05;;;5.55;;
55467;SDS011;41332;42.702;23.200;2022-09-02T04:05:48;5.75;;;5.20;;
55467;SDS011;41332;42.702;23.200;2022-09-02T04:08:15;6.22;;;5.28;;
55467;SDS011;41332;42.702;23.200;2022-09-02T04:10:41;5.45;;;5.05;;
55467;SDS011;41332;42.702;23.200;2022-09-02T04:13:06;5.95;;;4.93;;
55467;SDS011;41332;42.702;23.200;2022-09-02T04:15:32;5.80;;;5.30;;
55467;SDS011;41332;42.702;23.200;2022-09-02T04:17:57;8.75;;;5.32;;
55467;SDS011;41332;42.702;23.200;2022-09-02T04:20:23;7.05;;;6.22;;
55467;SDS011;41332;42.702;23.200;2022-09-02T04:22:48;6.10;;;5.50;;
55467;SDS011;41332;42.702;23.200;2022-09-02T04:25:14;5.57;;;5.07;;
55467;SDS011;41332;42.702;23.200;2022-09-02T04:27:39;6.32;;;5.72;;
55467;SDS011;41332;42.702;23.200;2022-09-02T04:30:05;7.47;;;6.75;;
55467;SDS011;41332;42.702;23.200;2022-09-02T04:32:32;7.25;;;4.97;;
55467;SDS011;41332;42.702;23.200;2022-09-02T04:34:58;5.47;;;4.97;;
55467;SDS011;41332;42.702;23.200;2022-09-02T04:37:24;5.47;;;4.97;;
55467;SDS011;41332;42.702;23.200;2022-09-02T04:39:50;5.38;;;4.43;;
55467;SDS011;41332;42.702;23.200;2022-09-02T04:42:16;6.13;;;5.37;;
55467;SDS011;41332;42.702;23.200;2022-09-02T04:44:42;4.95;;;4.53;;
55467;SDS011;41332;42.702;23.200;2022-09-02T04:47:07;4.50;;;4.10;;
55467;SDS011;41332;42.702;23.200;2022-09-02T04:49:32;5.93;;;5.43;;
55467;SDS011;41332;42.702;23.200;2022-09-02T04:51:59;4.43;;;4.13;;
55467;SDS011;41332;42.702;23.200;2022-09-02T04:54:24;5.50;;;5.00;;
55467;SDS011;41332;42.702;23.200;2022-09-02T04:56:51;5.23;;;4.57;;
55467;SDS011;41332;42.702;23.200;2022-09-02T04:59:16;5.32;;;4.82;;
55467;SDS011;41332;42.702;23.200;2022-09-02T05:01:42;5.00;;;4.60;;
55467;SDS011;41332;42.702;23.200;2022-09-02T05:04:08;4.53;;;4.10;;
55467;SDS011;41332;42.702;23.200;2022-09-02T05:06:34;5.15;;;4.65;;
55467;SDS011;41332;42.702;23.200;2022-09-02T05:09:00;4.75;;;4.35;;
55467;SDS011;41332;42.702;23.200;2022-09-02T05:11:28;7.32;;;5.63;;
55467;SDS011;41332;42.702;23.200;2022-09-02T05:13:57;5.97;;;5.47;;
55467;SDS011;41332;42.702;23.200;2022-09-02T05:16:29;5.45;;;4.75;;
55467;SDS011;41332;42.702;23.200;2022-09-02T05:18:58;6.43;;;5.82;;
55467;SDS011;41332;42.702;23.200;2022-09-02T05:21:24;9.70;;;6.50;;
55467;SDS011;41332;42.702;23.200;2022-09-02T05:23:51;9.57;;;5.50;;
55467;SDS011;41332;42.702;23.200;2022-09-02T05:26:17;7.63;;;6.82;;
55467;SDS011;41332;42.702;23.200;2022-09-02T05:28:42;8.05;;;6.90;;
55467;SDS011;41332;42.702;23.200;2022-09-02T05:31:09;12.32;;;6.25;;
55467;SDS011;41332;42.702;23.200;2022-09-02T05:33:37;8.20;;;6.47;;
55467;SDS011;41332;42.702;23.200;2022-09-02T05:36:08;7.72;;;6.05;;
55467;SDS011;41332;42.702;23.200;2022-09-02T05:38:38;8.35;;;7.45;;
55467;SDS011;41332;42.702;23.200;2022-09-02T05:41:05;9.38;;;7.53;;
55467;SDS011;41332;42.702;23.200;2022-09-02T05:43:36;8.07;;;7.30;;
55467;SDS011;41332;42.702;23.200;2022-09-02T05:46:03;9.45;;;8.10;;
55467;SDS011;41332;42.702;23.200;2022-09-02T05:48:31;8.45;;;7.20;;
55467;SDS011;41332;42.702;23.200;2022-09-02T05:51:15;11.65;;;8.07;;
55467;SDS011;41332;42.702;23.200;2022-09-02T05:53:40;11.95;;;8.55;;
55467;SDS011;41332;42.702;23.200;2022-09-02T05:56:06;11.30;;;8.63;;
55467;SDS011;41332;42.702;23.200;2022-09-02T05:58:31;14.85;;;9.75;;
55467;SDS011;41332;42.702;23.200;2022-09-02T06:00:57;9.40;;;7.90;;
55467;SDS011;41332;42.702;23.200;2022-09-02T06:03:23;13.25;;;9.88;;
55467;SDS011;41332;42.702;23.200;2022-09-02T06:05:53;9.68;;;8.60;;
55467;SDS011;41332;42.702;23.200;2022-09-02T06:08:22;16.65;;;10.18;;
55467;SDS011;41332;42.702;23.200;2022-09-02T06:10:48;14.98;;;9.45;;
55467;SDS011;41332;42.702;23.200;2022-09-02T06:13:13;21.30;;;9.82;;
55467;SDS011;41332;42.702;23.200;2022-09-02T06:15:42;19.83;;;11.32;;
55467;SDS011;41332;42.702;23.200;2022-09-02T06:18:08;16.40;;;9.57;;
55467;SDS011;41332;42.702;23.200;2022-09-02T06:20:38;11.77;;;8.85;;
55467;SDS011;41332;42.702;23.200;2022-09-02T06:23:07;13.00;;;8.55;;
55467;SDS011;41332;42.702;23.200;2022-09-02T06:25:40;16.92;;;10.65;;
55467;SDS011;41332;42.702;23.200;2022-09-02T06:28:07;9.95;;;8.27;;
55467;SDS011;41332;42.702;23.200;2022-09-02T06:30:32;8.15;;;7.35;;
55467;SDS011;41332;42.702;23.200;2022-09-02T06:32:58;12.43;;;6.85;;
55467;SDS011;41332;42.702;23.200;2022-09-02T06:35:27;9.95;;;7.95;;
55467;SDS011;41332;42.702;23.200;2022-09-02T06:37:52;10.50;;;7.85;;
55467;SDS011;41332;42.702;23.200;2022-09-02T06:40:18;12.23;;;8.55;;
55467;SDS011;41332;42.702;23.200;2022-09-02T06:42:43;7.00;;;6.40;;
55467;SDS011;41332;42.702;23.200;2022-09-02T06:45:09;10.25;;;6.90;;
55467;SDS011;41332;42.702;23.200;2022-09-02T06:47:35;12.52;;;8.93;;
55467;SDS011;41332;42.702;23.200;2022-09-02T06:50:00;8.32;;;6.50;;
55467;SDS011;41332;42.702;23.200;2022-09-02T06:52:25;13.52;;;9.32;;
55467;SDS011;41332;42.702;23.200;2022-09-02T06:54:51;10.10;;;7.05;;
55467;SDS011;41332;42.702;23.200;2022-09-02T06:57:18;16.85;;;11.18;;
55467;SDS011;41332;42.702;23.200;2022-09-02T06:59:44;14.52;;;9.88;;
55467;SDS011;41332;42.702;23.200;2022-09-02T07:02:10;10.95;;;9.50;;
55467;SDS011;41332;42.702;23.200;2022-09-02T07:04:36;17.60;;;10.85;;
55467;SDS011;41332;42.702;23.200;2022-09-02T07:07:20;18.77;;;12.73;;
55467;SDS011;41332;42.702;23.200;2022-09-02T07:09:45;22.33;;;11.48;;
55467;SDS011;41332;42.702;23.200;2022-09-02T07:12:11;17.15;;;11.10;;
55467;SDS011;41332;42.702;23.200;2022-09-02T07:14:37;13.20;;;10.63;;
55467;SDS011;41332;42.702;23.200;2022-09-02T07:17:05;18.58;;;12.70;;
55467;SDS011;41332;42.702;23.200;2022-09-02T07:19:32;17.85;;;10.73;;
55467;SDS011;41332;42.702;23.200;2022-09-02T07:21:57;11.35;;;9.65;;
55467;SDS011;41332;42.702;23.200;2022-09-02T07:24:23;17.98;;;11.75;;
55467;SDS011;41332;42.702;23.200;2022-09-02T07:26:49;12.90;;;10.15;;
55467;SDS011;41332;42.702;23.200;2022-09-02T07:29:15;20.90;;;11.73;;
55467;SDS011;41332;42.702;23.200;2022-09-02T07:31:41;15.38;;;12.00;;
55467;SDS011;41332;42.702;23.200;2022-09-02T07:34:09;20.00;;;13.50;;
55467;SDS011;41332;42.702;23.200;2022-09-02T07:36:35;18.73;;;13.32;;
55467;SDS011;41332;42.702;23.200;2022-09-02T07:39:05;16.13;;;12.20;;
55467;SDS011;41332;42.702;23.200;2022-09-02T07:41:32;19.55;;;12.80;;
55467;SDS011;41332;42.702;23.200;2022-09-02T07:43:58;14.45;;;12.52;;
55467;SDS011;41332;42.702;23.200;2022-09-02T07:46:24;14.02;;;10.98;;
55467;SDS011;41332;42.702;23.200;2022-09-02T07:48:49;13.90;;;10.40;;
55467;SDS011;41332;42.702;23.200;2022-09-02T07:51:16;16.33;;;10.93;;
55467;SDS011;41332;42.702;23.200;2022-09-02T07:53:43;11.85;;;9.82;;
55467;SDS011;41332;42.702;23.200;2022-09-02T07:56:10;12.13;;;9.93;;
55467;SDS011;41332;42.702;23.200;2022-09-02T07:58:37;13.05;;;9.23;;
55467;SDS011;41332;42.702;23.200;2022-09-02T08:01:04;11.45;;;8.90;;
55467;SDS011;41332;42.702;23.200;2022-09-02T08:03:29;12.63;;;9.30;;
55467;SDS011;41332;42.702;23.200;2022-09-02T08:05:55;11.20;;;7.15;;
55467;SDS011;41332;42.702;23.200;2022-09-02T08:08:21;12.40;;;8.07;;
55467;SDS011;41332;42.702;23.200;2022-09-02T08:10:48;7.43;;;6.57;;
55467;SDS011;41332;42.702;23.200;2022-09-02T08:13:15;8.07;;;7.28;;
55467;SDS011;41332;42.702;23.200;2022-09-02T08:15:42;8.20;;;7.20;;
55467;SDS011;41332;42.702;23.200;2022-09-02T08:18:08;8.32;;;7.43;;
55467;SDS011;41332;42.702;23.200;2022-09-02T08:20:34;8.18;;;6.40;;
55467;SDS011;41332;42.702;23.200;2022-09-02T08:22:59;6.60;;;6.07;;
55467;SDS011;41332;42.702;23.200;2022-09-02T08:25:25;9.15;;;7.45;;
55467;SDS011;41332;42.702;23.200;2022-09-02T08:27:52;9.05;;;6.65;;
55467;SDS011;41332;42.702;23.200;2022-09-02T08:30:18;7.60;;;6.90;;
55467;SDS011;41332;42.702;23.200;2022-09-02T08:32:44;7.57;;;6.90;;
55467;SDS011;41332;42.702;23.200;2022-09-02T08:35:10;9.48;;;6.57;;
55467;SDS011;41332;42.702;23.200;2022-09-02T08:37:36;8.05;;;6.57;;
55467;SDS011;41332;42.702;23.200;2022-09-02T08:40:03;7.90;;;7.07;;
55467;SDS011;41332;42.702;23.200;2022-09-02T08:42:40;11.63;;;7.63;;
55467;SDS011;41332;42.702;23.200;2022-09-02T08:47:37;12.18;;;8.02;;
55467;SDS011;41332;42.702;23.200;2022-09-02T08:50:09;11.15;;;7.63;;
55467;SDS011;41332;42.702;23.200;2022-09-02T08:55:56;13.07;;;8.13;;
55467;SDS011;41332;42.702;23.200;2022-09-02T08:58:23;11.52;;;7.75;;
55467;SDS011;41332;42.702;23.200;2022-09-02T09:07:18;9.02;;;8.13;;
55467;SDS011;41332;42.702;23.200;2022-09-02T09:12:14;11.77;;;8.43;;
55467;SDS011;41332;42.702;23.200;2022-09-02T09:17:51;10.73;;;9.05;;
55467;SDS011;41332;42.702;23.200;2022-09-02T09:20:24;10.60;;;9.50;;
55467;SDS011;41332;42.702;23.200;2022-09-02T09:22:56;11.77;;;8.95;;
55467;SDS011;41332;42.702;23.200;2022-09-02T09:25:24;10.43;;;8.68;;
55467;SDS011;41332;42.702;23.200;2022-09-02T09:27:54;12.57;;;8.48;;
55467;SDS011;41332;42.702;23.200;2022-09-02T09:32:46;10.27;;;9.07;;
55467;SDS011;41332;42.702;23.200;2022-09-02T09:35:19;9.55;;;8.02;;
55467;SDS011;41332;42.702;23.200;2022-09-02T09:42:46;8.75;;;7.82;;
55467;SDS011;41332;42.702;23.200;2022-09-02T09:45:43;9.20;;;7.97;;
55467;SDS011;41332;42.702;23.200;2022-09-02T09:50:41;10.77;;;7.88;;
55467;SDS011;41332;42.702;23.200;2022-09-02T09:53:14;9.18;;;8.15;;
55467;SDS011;41332;42.702;23.200;2022-09-02T09:58:44;9.98;;;7.78;;
55467;SDS011;41332;42.702;23.200;2022-09-02T10:01:12;12.10;;;8.10;;
55467;SDS011;41332;42.702;23.200;2022-09-02T10:03:46;9.25;;;8.32;;
55467;SDS011;41332;42.702;23.200;2022-09-02T10:09:24;10.05;;;9.02;;
55467;SDS011;41332;42.702;23.200;2022-09-02T10:12:01;10.38;;;8.18;;
55467;SDS011;41332;42.702;23.200;2022-09-02T10:14:52;9.88;;;8.60;;
55467;SDS011;41332;42.702;23.200;2022-09-02T10:22:29;11.52;;;7.50;;
55467;SDS011;41332;42.702;23.200;2022-09-02T10:25:00;9.63;;;7.63;;
55467;SDS011;41332;42.702;23.200;2022-09-02T10:27:55;8.88;;;7.82;;
55467;SDS011;41332;42.702;23.200;2022-09-02T10:30:25;9.40;;;7.72;;
55467;SDS011;41332;42.702;23.200;2022-09-02T10:35:32;11.18;;;7.63;;
55467;SDS011;41332;42.702;23.200;2022-09-02T10:44:10;10.43;;;9.25;;
55467;SDS011;41332;42.702;23.200;2022-09-02T10:46:52;10.70;;;8.77;;
55467;SDS011;41332;42.702;23.200;2022-09-02T10:49:42;9.90;;;8.60;;
55467;SDS011;41332;42.702;23.200;2022-09-02T11:00:18;12.40;;;9.90;;
55467;SDS011;41332;42.702;23.200;2022-09-02T11:08:02;15.27;;;11.45;;
55467;SDS011;41332;42.702;23.200;2022-09-02T11:10:35;13.43;;;10.48;;
55467;SDS011;41332;42.702;23.200;2022-09-02T11:13:06;15.13;;;11.13;;
55467;SDS011;41332;42.702;23.200;2022-09-02T11:15:53;13.98;;;10.40;;
55467;SDS011;41332;42.702;23.200;2022-09-02T11:18:37;13.50;;;11.23;;
55467;SDS011;41332;42.702;23.200;2022-09-02T11:24:46;13.52;;;10.57;;
55467;SDS011;41332;42.702;23.200;2022-09-02T11:35:13;17.58;;;11.40;;
55467;SDS011;41332;42.702;23.200;2022-09-02T11:37:48;15.48;;;11.65;;
55467;SDS011;41332;42.702;23.200;2022-09-02T11:40:35;14.40;;;11.38;;
55467;SDS011;41332;42.702;23.200;2022-09-02T11:54:25;17.13;;;12.02;;
55467;SDS011;41332;42.702;23.200;2022-09-02T11:56:59;13.45;;;11.13;;
55467;SDS011;41332;42.702;23.200;2022-09-02T12:21:18;11.55;;;10.25;;
55467;SDS011;41332;42.702;23.200;2022-09-02T12:26:19;11.88;;;10.35;;
55467;SDS011;41332;42.702;23.200;2022-09-02T12:29:29;11.77;;;10.57;;
55467;SDS011;41332;42.702;23.200;2022-09-02T12:31:57;12.02;;;10.70;;
55467;SDS011;41332;42.702;23.200;2022-09-02T12:47:01;12.75;;;10.18;;
55467;SDS011;41332;42.702;23.200;2022-09-02T12:57:54;13.88;;;10.15;;
55467;SDS011;41332;42.702;23.200;2022-09-02T13:05:53;13.07;;;10.18;;
55467;SDS011;41332;42.702;23.200;2022-09-02T13:16:38;13.32;;;10.02;;
55467;SDS011;41332;42.702;23.200;2022-09-02T13:30:16;12.23;;;11.02;;
55467;SDS011;41332;42.702;23.200;2022-09-02T13:32:53;26.07;;;12.73;;
55467;SDS011;41332;42.702;23.200;2022-09-02T13:35:23;25.30;;;14.25;;
55467;SDS011;41332;42.702;23.200;2022-09-02T13:37:52;18.85;;;13.07;;
55467;SDS011;41332;42.702;23.200;2022-09-02T13:45:21;26.70;;;17.10;;
55467;SDS011;41332;42.702;23.200;2022-09-02T13:47:52;20.30;;;13.98;;
55467;SDS011;41332;42.702;23.200;2022-09-02T13:50:27;23.20;;;13.65;;
55467;SDS011;41332;42.702;23.200;2022-09-02T13:52:55;26.88;;;16.13;;
55467;SDS011;41332;42.702;23.200;2022-09-02T13:55:21;23.83;;;15.32;;
55467;SDS011;41332;42.702;23.200;2022-09-02T13:57:53;29.35;;;14.60;;
55467;SDS011;41332;42.702;23.200;2022-09-02T14:00:32;19.63;;;14.02;;
55467;SDS011;41332;42.702;23.200;2022-09-02T14:03:07;26.45;;;15.60;;
55467;SDS011;41332;42.702;23.200;2022-09-02T14:05:37;17.50;;;14.25;;
55467;SDS011;41332;42.702;23.200;2022-09-02T14:08:05;22.63;;;14.35;;
55467;SDS011;41332;42.702;23.200;2022-09-02T14:10:35;19.45;;;15.70;;
55467;SDS011;41332;42.702;23.200;2022-09-02T14:13:03;37.03;;;22.67;;
55467;SDS011;41332;42.702;23.200;2022-09-02T14:15:31;20.90;;;16.27;;
55467;SDS011;41332;42.702;23.200;2022-09-02T14:20:32;24.70;;;15.10;;
55467;SDS011;41332;42.702;23.200;2022-09-02T14:22:59;22.63;;;14.77;;
55467;SDS011;41332;42.702;23.200;2022-09-02T14:25:25;21.05;;;14.65;;
55467;SDS011;41332;42.702;23.200;2022-09-02T14:27:55;23.73;;;14.20;;
55467;SDS011;41332;42.702;23.200;2022-09-02T14:38:36;23.85;;;15.30;;
55467;SDS011;41332;42.702;23.200;2022-09-02T14:43:46;19.48;;;16.38;;
55467;SDS011;41332;42.702;23.200;2022-09-02T14:46:34;20.65;;;15.07;;
55467;SDS011;41332;42.702;23.200;2022-09-02T14:49:17;23.67;;;16.13;;
55467;SDS011;41332;42.702;23.200;2022-09-02T14:52:04;21.38;;;15.27;;
55467;SDS011;41332;42.702;23.200;2022-09-02T14:54:43;24.00;;;16.40;;
55467;SDS011;41332;42.702;23.200;2022-09-02T14:57:27;22.08;;;16.23;;
55467;SDS011;41332;42.702;23.200;2022-09-02T14:59:55;22.55;;;16.45;;
55467;SDS011;41332;42.702;23.200;2022-09-02T15:04:51;23.60;;;17.88;;
55467;SDS011;41332;42.702;23.200;2022-09-02T15:07:22;23.45;;;17.23;;
55467;SDS011;41332;42.702;23.200;2022-09-02T15:09:48;22.92;;;16.77;;
55467;SDS011;41332;42.702;23.200;2022-09-02T15:12:15;29.42;;;18.58;;
55467;SDS011;41332;42.702;23.200;2022-09-02T15:14:43;23.80;;;17.30;;
55467;SDS011;41332;42.702;23.200;2022-09-02T15:17:10;26.85;;;17.17;;
55467;SDS011;41332;42.702;23.200;2022-09-02T15:19:38;23.10;;;17.08;;
55467;SDS011;41332;42.702;23.200;2022-09-02T15:22:04;26.88;;;18.05;;
55467;SDS011;41332;42.702;23.200;2022-09-02T15:24:29;21.83;;;16.95;;
55467;SDS011;41332;42.702;23.200;2022-09-02T15:26:55;24.60;;;16.70;;
55467;SDS011;41332;42.702;23.200;2022-09-02T15:29:20;24.08;;;16.95;;
55467;SDS011;41332;42.702;23.200;2022-09-02T15:31:49;24.55;;;17.02;;
55467;SDS011;41332;42.702;23.200;2022-09-02T15:34:15;24.20;;;16.35;;
55467;SDS011;41332;42.702;23.200;2022-09-02T15:36:40;23.30;;;16.58;;
55467;SDS011;41332;42.702;23.200;2022-09-02T15:39:06;23.80;;;16.90;;
55467;SDS011;41332;42.702;23.200;2022-09-02T15:41:31;22.60;;;15.88;;
55467;SDS011;41332;42.702;23.200;2022-09-02T15:43:58;23.77;;;16.13;;
55467;SDS011;41332;42.702;23.200;2022-09-02T15:46:30;19.13;;;13.05;;
55467;SDS011;41332;42.702;23.200;2022-09-02T15:49:00;18.70;;;13.80;;
55467;SDS011;41332;42.702;23.200;2022-09-02T15:51:28;17.33;;;13.30;;
55467;SDS011;41332;42.702;23.200;2022-09-02T15:53:57;18.70;;;13.05;;
55467;SDS011;41332;42.702;23.200;2022-09-02T15:56:25;15.18;;;11.10;;
55467;SDS011;41332;42.702;23.200;2022-09-02T15:58:57;14.30;;;11.88;;
55467;SDS011;41332;42.702;23.200;2022-09-02T16:01:24;15.32;;;10.95;;
55467;SDS011;41332;42.702;23.200;2022-09-02T16:03:51;12.45;;;10.73;;
55467;SDS011;41332;42.702;23.200;2022-09-02T16:06:17;10.00;;;7.47;;
55467;SDS011;41332;42.702;23.200;2022-09-02T16:08:43;7.72;;;6.93;;
55467;SDS011;41332;42.702;23.200;2022-09-02T16:11:08;10.23;;;7.10;;
55467;SDS011;41332;42.702;23.200;2022-09-02T16:13:34;7.13;;;6.30;;
55467;SDS011;41332;42.702;23.200;2022-09-02T16:16:02;7.47;;;6.32;;
55467;SDS011;41332;42.702;23.200;2022-09-02T16:18:29;7.32;;;5.55;;
55467;SDS011;41332;42.702;23.200;2022-09-02T16:20:55;6.78;;;5.70;;
55467;SDS011;41332;42.702;23.200;2022-09-02T16:23:20;6.15;;;5.13;;
55467;SDS011;41332;42.702;23.200;2022-09-02T16:25:46;6.65;;;5.95;;
55467;SDS011;41332;42.702;23.200;2022-09-02T16:28:12;6.80;;;5.05;;
55467;SDS011;41332;42.702;23.200;2022-09-02T16:30:39;5.72;;;5.22;;
55467;SDS011;41332;42.702;23.200;2022-09-02T16:33:05;7.93;;;4.70;;
55467;SDS011;41332;42.702;23.200;2022-09-02T16:35:30;6.70;;;3.70;;
55467;SDS011;41332;42.702;23.200;2022-09-02T16:37:55;3.90;;;3.50;;
55467;SDS011;41332;42.702;23.200;2022-09-02T16:40:22;6.50;;;3.58;;
55467;SDS011;41332;42.702;23.200;2022-09-02T16:42:47;3.72;;;3.42;;
55467;SDS011;41332;42.702;23.200;2022-09-02T16:45:13;3.88;;;3.30;;
55467;SDS011;41332;42.702;23.200;2022-09-02T16:47:39;5.13;;;3.60;;
55467;SDS011;41332;42.702;23.200;2022-09-02T16:50:04;4.10;;;3.67;;
55467;SDS011;41332;42.702;23.200;2022-09-02T16:52:30;6.45;;;3.38;;
55467;SDS011;41332;42.702;23.200;2022-09-02T16:54:58;3.90;;;3.15;;
55467;SDS011;41332;42.702;23.200;2022-09-02T16:57:24;4.80;;;3.60;;
55467;SDS011;41332;42.702;23.200;2022-09-02T16:59:49;8.27;;;3.83;;
55467;SDS011;41332;42.702;23.200;2022-09-02T17:02:15;4.82;;;4.13;;
55467;SDS011;41332;42.702;23.200;2022-09-02T17:04:41;5.35;;;3.45;;
55467;SDS011;41332;42.702;23.200;2022-09-02T17:07:06;4.68;;;4.22;;
55467;SDS011;41332;42.702;23.200;2022-09-02T17:09:32;6.38;;;4.40;;
55467;SDS011;41332;42.702;23.200;2022-09-02T17:11:57;4.60;;;4.20;;
55467;SDS011;41332;42.702;23.200;2022-09-02T17:14:22;4.45;;;4.05;;
55467;SDS011;41332;42.702;23.200;2022-09-02T17:16:48;5.55;;;4.20;;
55467;SDS011;41332;42.702;23.200;2022-09-02T17:19:15;4.90;;;4.28;;
55467;SDS011;41332;42.702;23.200;2022-09-02T17:21:45;9.68;;;4.93;;
55467;SDS011;41332;42.702;23.200;2022-09-02T17:24:13;6.80;;;5.22;;
55467;SDS011;41332;42.702;23.200;2022-09-02T17:26:40;6.10;;;4.30;;
55467;SDS011;41332;42.702;23.200;2022-09-02T17:31:36;4.57;;;4.15;;